• Join FlightAware (Why Join?)
  • Login
  • US Flag 
12:34PM EST


 

Airport Tracker/Info


-or-


 

Live Flight TrackerFlight Track Log ✈ SWA1810 ✈ 01-May-2013 ✈ KBWI - KCMH

Flight Track Log - Related Links

Times and Time Zones

All times are in EDT time to prevent confusion due to time zone crossing. See the SWA1810 flight status page for this flight to view local times or setup timezone preferences in your user account.

Time Position Orientation Groundspeed Altitude Reporting Facility
EDT Latitude Longitude Course Direction KTS MPH feet Rate Location/Type
11:13AM 39.1833 -76.6333 314° West 176 203 2,100  Level Potomac TRACON
11:14AM 39.2333 -76.7000 314° West 229 264 4,900 3,000 Climbing Potomac TRACON
11:15AM 39.2167 -76.8000 258° West 291 335 8,200 3,420 Climbing Potomac TRACON
11:16AM 39.2167 -76.9000 270° West 307 353 11,800 3,420 Climbing Potomac TRACON
11:17AM 39.2167 -77.0333 270° West 351 404 15,100 2,940 Climbing Potomac TRACON
11:19AM 39.1019 -77.2581 237° Southwest 385 443 21,300 2,460 Climbing Washington Center
11:20AM 39.0728 -77.3964 255° West 382 440 23,000 840 Climbing Washington Center
11:21AM 39.0561 -77.5375 261° West 392 451 23,000  Level Washington Center
11:22AM 39.0372 -77.6628 259° West 402 463 23,000 720 Level Washington Center
11:23AM 39.0178 -77.8197 261° West 407 468 24,500 1,920 Climbing Washington Center
11:24AM 38.9983 -77.9633 260° West 407 468 26,900 1,260 Climbing Washington Center
11:25AM 38.9767 -78.1069 259° West 407 468 27,000  Climbing Washington Center
11:26AM 38.9611 -78.2478 262° West 407 468 27,000  Level Washington Center
11:27AM 38.9642 -78.3922 272° West 407 468 27,000  Level Washington Center
11:28AM 38.9711 -78.5339 274° West 407 468 27,000 960 Level Washington Center
11:29AM 38.9739 -78.6783 271° West 407 468 29,000 1,500 Climbing Washington Center
11:30AM 38.9806 -78.8253 273° West 407 468 30,000 480 Climbing Washington Center
11:31AM 38.9828 -78.9697 271° West 407 468 30,000  Level Washington Center
11:32AM 38.9869 -79.1142 272° West 407 468 30,000  Level Washington Center
11:33AM 38.9908 -79.2586 272° West 407 468 30,000  Level Washington Center
11:34AM 38.9947 -79.4031 272° West 407 468 30,000  Level Washington Center
11:35AM 38.9983 -79.5475 272° West 407 468 30,000  Level Washington Center
11:36AM 38.9997 -79.6972 271° West 412 474 30,000  Level Washington Center
11:38AM 39.0031 -80.0017 271° West 406 467 30,000  Level Indianapolis Center
11:39AM 39.0047 -80.1572 271° West 407 468 30,000  Level Indianapolis Center
11:40AM 39.0081 -80.3019 272° West 406 467 30,000  Level Indianapolis Center
11:41AM 39.0094 -80.4461 271° West 404 465 30,000  Level Indianapolis Center
11:43AM 39.0331 -80.5864 282° West 407 468 30,000 -540 Level Indianapolis Center
11:44AM 39.0861 -80.7464 293° West 408 470 29,000 -1,020 Descending Indianapolis Center
11:45AM 39.1278 -80.8794 292° West 403 464 28,000 -1,020 Descending Indianapolis Center
11:46AM 39.1714 -81.0097 293° West 399 459 27,000 -1,020 Descending Indianapolis Center
11:47AM 39.2125 -81.1400 292° West 395 455 26,000 -1,020 Descending Indianapolis Center
11:48AM 39.2542 -81.2689 293° West 392 451 25,000 -1,080 Descending Indianapolis Center
11:49AM 39.2947 -81.3978 292° West 391 450 23,900 -1,020 Descending Indianapolis Center
11:50AM 39.3350 -81.5239 292° West 384 442 23,000 -1,080 Descending Indianapolis Center
11:51AM 39.3814 -81.6736 292° West 376 433 21,700 -1,620 Descending Indianapolis Center
11:52AM 39.4183 -81.7942 292° West 366 421 19,800 -1,860 Descending Indianapolis Center
11:53AM 39.4550 -81.9086 293° West 348 400 18,000 -1,800 Descending Indianapolis Center
11:54AM 39.4906 -82.0256 292° West 349 402 16,200 -1,860 Descending Indianapolis Center
11:55AM 39.5281 -82.1453 292° West 347 399 14,200 -2,040 Descending Indianapolis Center
11:55AM 39.5403 -82.1931 288° West 342 394 13,500 -1,860 Descending Indianapolis Center
11:56AM 39.5633 -82.2594 294° West 339 390 12,300 -1,560 Descending Indianapolis Center
11:57AM 39.5992 -82.3700 293° West 333 383 10,800 -1,500 Descending Indianapolis Center
11:57AM 39.6214 -82.4042 310° West 321 369 10,400 -780 Descending Indianapolis Center
11:58AM 39.6564 -82.4575 310° West 312 359 10,000 -360 Descending Indianapolis Center
11:58AM 39.6817 -82.5056 304° West 305 351 10,000  Level Indianapolis Center
11:59AM 39.7214 -82.5639 312° West 323 372 10,000 -420 Level Indianapolis Center
12:00PM 39.7767 -82.6567 308° West 320 368 9,300 -1,080 Descending Indianapolis Center
12:01PM 39.8261 -82.7394 308° West 297 342 7,800 -1,380 Descending Indianapolis Center
12:02PM 39.8764 -82.8208 309° West 289 333 6,500 -1,020 Descending Indianapolis Center
12:03PM 39.9117 -82.9042 299° West 276 318 5,800 -900 Descending Indianapolis Center
12:04PM 39.9136 -82.9869 272° West 233 268 4,800 -1,380 Descending Indianapolis Center
12:05PM 39.9542 -83.0408 314° West 242 278 3,000 -900 Descending Indianapolis Center
12:06PM 39.9958 -83.0200 21° North 194 223 2,900 -780 Descending Indianapolis Center
12:07PM 39.9981 -82.9589 87° East 156 180 1,500 -1,020 Descending Indianapolis Center
12:08PM 39.9961 -82.9122 93° East 133 153 900 -600 Descending Indianapolis Center